Time;durP1;ratioP1;P1;durP2;ratioP2;P2;SDS_P1;SDS_P2;PMS_P1;PMS_P2;Temp;Humidity;BMP_temperature;BMP_pressure;BME280_temperature;BME280_humidity;BME280_pressure;Samples;Min_cycle;Max_cycle;Signal;HPM_P1;HPM_P2
2021/05/12 00:01:49;;;;;;;6.35;4.45;;;;;;;;;;5092055;28;20031;-60
2021/05/12 00:04:15;;;;;;;5.32;4.22;;;;;;;;;;5092111;28;20032;-61
2021/05/12 00:06:41;;;;;;;6.97;4.70;;;;;;;;;;5092102;28;20035;-60
2021/05/12 00:09:07;;;;;;;6.35;4.32;;;;;;;;;;5091473;28;20032;-60
2021/05/12 00:11:33;;;;;;;6.45;3.90;;;;;;;;;;5092228;28;20062;-60
2021/05/12 00:13:59;;;;;;;9.20;4.63;;;;;;;;;;5092228;28;20024;-60
2021/05/12 00:16:26;;;;;;;6.60;4.38;;;;;;;;;;5091866;28;20027;-60
2021/05/12 00:18:52;;;;;;;5.60;3.92;;;;;;;;;;5092140;28;20020;-61
2021/05/12 00:21:45;;;;;;;6.32;4.30;;;;;;;;;;5092055;28;20043;-60
2021/05/12 00:24:11;;;;;;;9.18;4.20;;;;;;;;;;5108783;28;20027;-61
2021/05/12 00:26:41;;;;;;;5.05;4.18;;;;;;;;;;5112396;28;20084;-60
2021/05/12 00:29:14;;;;;;;5.40;3.90;;;;;;;;;;5112076;28;20038;-60
2021/05/12 00:31:40;;;;;;;6.07;4.25;;;;;;;;;;5111725;28;20031;-60
2021/05/12 00:34:06;;;;;;;5.72;3.80;;;;;;;;;;5112120;28;20031;-60
2021/05/12 00:36:32;;;;;;;5.57;3.90;;;;;;;;;;5112206;28;20027;-60
2021/05/12 00:39:00;;;;;;;5.70;3.72;;;;;;;;;;5111632;28;20106;-61
2021/05/12 00:41:26;;;;;;;6.43;4.20;;;;;;;;;;5112658;28;20062;-60
2021/05/12 00:43:52;;;;;;;5.43;4.10;;;;;;;;;;5111639;28;20051;-60
2021/05/12 00:46:18;;;;;;;6.55;4.10;;;;;;;;;;5107617;28;20062;-61
2021/05/12 00:48:44;;;;;;;4.55;3.95;;;;;;;;;;5091711;28;20024;-60
2021/05/12 00:51:10;;;;;;;7.15;4.30;;;;;;;;;;5091220;28;20060;-60
2021/05/12 00:53:37;;;;;;;4.72;3.95;;;;;;;;;;5090920;28;20057;-60
2021/05/12 00:56:03;;;;;;;5.05;3.70;;;;;;;;;;5078063;28;20025;-60
2021/05/12 00:58:29;;;;;;;6.10;4.10;;;;;;;;;;5070539;28;20032;-60
2021/05/12 01:00:55;;;;;;;5.05;4.03;;;;;;;;;;5069505;28;20040;-61
2021/05/12 01:03:22;;;;;;;7.30;4.22;;;;;;;;;;5070724;28;20467;-60
2021/05/12 01:05:51;;;;;;;5.18;4.00;;;;;;;;;;5070999;28;20028;-60
2021/05/12 01:08:17;;;;;;;6.47;4.30;;;;;;;;;;5070235;28;20478;-60
2021/05/12 01:10:43;;;;;;;4.50;3.85;;;;;;;;;;5070977;28;20070;-60
2021/05/12 01:13:11;;;;;;;8.60;4.40;;;;;;;;;;5070451;28;20035;-60
2021/05/12 01:15:37;;;;;;;5.47;3.90;;;;;;;;;;5067922;28;20028;-60
2021/05/12 01:18:09;;;;;;;6.32;4.00;;;;;;;;;;5071286;28;20810;-60
2021/05/12 01:20:47;;;;;;;6.75;3.92;;;;;;;;;;5071062;28;20070;-61
2021/05/12 01:23:14;;;;;;;5.95;4.05;;;;;;;;;;5089066;28;20034;-61
2021/05/12 01:25:40;;;;;;;5.90;3.83;;;;;;;;;;5111245;28;20420;-60
2021/05/12 01:28:06;;;;;;;7.32;4.03;;;;;;;;;;5112056;28;20032;-60
2021/05/12 01:30:32;;;;;;;4.65;3.85;;;;;;;;;;5110911;28;20027;-61
2021/05/12 01:33:00;;;;;;;8.32;4.47;;;;;;;;;;5111531;28;20028;-60
2021/05/12 01:35:26;;;;;;;6.57;4.50;;;;;;;;;;5111285;28;20028;-61
2021/05/12 01:37:52;;;;;;;8.38;4.88;;;;;;;;;;5111167;28;20031;-60
2021/05/12 01:40:18;;;;;;;8.63;4.22;;;;;;;;;;5111079;28;20552;-61
2021/05/12 01:42:44;;;;;;;8.80;4.68;;;;;;;;;;5111382;28;20026;-61
2021/05/12 01:45:11;;;;;;;6.20;4.65;;;;;;;;;;5110895;28;20034;-61
2021/05/12 01:47:37;;;;;;;6.40;3.97;;;;;;;;;;5096521;28;20131;-61
2021/05/12 01:50:07;;;;;;;6.75;4.20;;;;;;;;;;5090835;28;20433;-61
2021/05/12 01:52:37;;;;;;;5.63;4.07;;;;;;;;;;5090330;28;20047;-61
2021/05/12 01:55:04;;;;;;;7.57;3.92;;;;;;;;;;5090895;28;20035;-60
2021/05/12 01:57:30;;;;;;;7.55;4.30;;;;;;;;;;5090649;28;20470;-60
2021/05/12 01:59:56;;;;;;;7.22;3.97;;;;;;;;;;5089394;28;20028;-60
2021/05/12 02:02:22;;;;;;;7.78;4.63;;;;;;;;;;5090955;28;20016;-60
2021/05/12 02:04:48;;;;;;;6.63;4.13;;;;;;;;;;5090598;28;20030;-60
2021/05/12 02:07:14;;;;;;;5.35;4.00;;;;;;;;;;5090427;28;20024;-61
2021/05/12 02:09:41;;;;;;;6.65;4.18;;;;;;;;;;5090477;28;20028;-60
2021/05/12 02:12:07;;;;;;;7.03;4.15;;;;;;;;;;5092292;28;20078;-61
2021/05/12 02:14:34;;;;;;;6.32;4.10;;;;;;;;;;5094006;28;20035;-61
2021/05/12 02:17:00;;;;;;;6.13;3.90;;;;;;;;;;5094910;28;20431;-60
2021/05/12 02:19:26;;;;;;;6.50;4.13;;;;;;;;;;5094014;28;20066;-60
2021/05/12 02:21:53;;;;;;;6.97;4.20;;;;;;;;;;5093841;28;20052;-60
2021/05/12 02:24:19;;;;;;;6.65;4.07;;;;;;;;;;5112748;28;20031;-61
2021/05/12 02:26:45;;;;;;;8.32;4.38;;;;;;;;;;5114366;28;20423;-61
2021/05/12 02:29:11;;;;;;;5.53;4.45;;;;;;;;;;5114506;28;20513;-60
2021/05/12 02:31:37;;;;;;;6.03;4.03;;;;;;;;;;5114292;28;20027;-60
2021/05/12 02:34:03;;;;;;;6.60;4.13;;;;;;;;;;5114237;28;20103;-61
2021/05/12 02:36:29;;;;;;;7.13;4.05;;;;;;;;;;5114532;28;20043;-60
2021/05/12 02:38:55;;;;;;;8.40;4.30;;;;;;;;;;5113883;28;20031;-61
2021/05/12 02:41:21;;;;;;;6.47;4.30;;;;;;;;;;5114320;28;20020;-60
2021/05/12 02:43:47;;;;;;;6.82;4.50;;;;;;;;;;5114402;28;20070;-60
2021/05/12 02:46:13;;;;;;;8.30;4.43;;;;;;;;;;5110821;28;20028;-60
2021/05/12 02:48:39;;;;;;;7.82;4.18;;;;;;;;;;5093729;28;20047;-61
2021/05/12 02:51:05;;;;;;;6.32;4.25;;;;;;;;;;5093712;28;20472;-60
2021/05/12 02:53:31;;;;;;;7.75;4.30;;;;;;;;;;5093568;28;20032;-61
2021/05/12 02:55:57;;;;;;;5.78;4.20;;;;;;;;;;5093418;28;20016;-61
2021/05/12 02:58:23;;;;;;;6.82;4.20;;;;;;;;;;5093507;28;20104;-60
2021/05/12 03:00:49;;;;;;;8.38;4.38;;;;;;;;;;5093228;28;20376;-61
2021/05/12 03:03:15;;;;;;;8.27;4.30;;;;;;;;;;5093716;28;20099;-60
2021/05/12 03:05:41;;;;;;;9.13;4.22;;;;;;;;;;5093210;28;20024;-61
2021/05/12 03:08:08;;;;;;;8.02;4.10;;;;;;;;;;5092855;28;20034;-60
2021/05/12 03:10:34;;;;;;;8.88;4.22;;;;;;;;;;5093206;28;20412;-61
2021/05/12 03:13:00;;;;;;;8.82;4.43;;;;;;;;;;5093277;28;20027;-60
2021/05/12 03:15:26;;;;;;;10.70;4.30;;;;;;;;;;5070619;28;20028;-61
2021/05/12 03:17:53;;;;;;;7.63;4.35;;;;;;;;;;5070957;28;20082;-60
2021/05/12 03:20:19;;;;;;;9.38;4.90;;;;;;;;;;5072047;28;20058;-60
2021/05/12 03:22:45;;;;;;;7.18;4.30;;;;;;;;;;5083087;28;20047;-61
2021/05/12 03:25:12;;;;;;;6.82;4.43;;;;;;;;;;5112793;28;20102;-60
2021/05/12 03:27:38;;;;;;;9.32;4.75;;;;;;;;;;5112938;28;20032;-61
2021/05/12 03:30:05;;;;;;;7.43;4.25;;;;;;;;;;5112857;28;20030;-61
2021/05/12 03:32:31;;;;;;;7.07;4.05;;;;;;;;;;5091724;28;20043;-61
2021/05/12 03:34:57;;;;;;;6.35;4.25;;;;;;;;;;5072733;28;20021;-60
2021/05/12 03:37:23;;;;;;;7.47;4.40;;;;;;;;;;5071811;28;20047;-61
2021/05/12 03:39:49;;;;;;;7.07;4.25;;;;;;;;;;5072664;28;20027;-60
2021/05/12 03:42:15;;;;;;;10.18;4.40;;;;;;;;;;5072996;28;20063;-61
2021/05/12 03:44:41;;;;;;;8.88;4.40;;;;;;;;;;5071936;28;20044;-60
2021/05/12 03:47:07;;;;;;;14.55;5.28;;;;;;;;;;5083296;28;20028;-61
2021/05/12 03:49:33;;;;;;;20.77;5.35;;;;;;;;;;5092522;28;20035;-60
2021/05/12 03:51:59;;;;;;;12.95;4.65;;;;;;;;;;5091627;28;20122;-60
2021/05/12 03:54:26;;;;;;;11.18;4.85;;;;;;;;;;5092406;28;20031;-61
2021/05/12 03:56:53;;;;;;;10.05;4.65;;;;;;;;;;5092616;28;20069;-60
2021/05/12 03:59:19;;;;;;;12.63;5.00;;;;;;;;;;5091793;28;20020;-61
2021/05/12 04:01:45;;;;;;;15.15;5.50;;;;;;;;;;5092454;28;20024;-60
2021/05/12 04:04:14;;;;;;;12.93;4.72;;;;;;;;;;5092257;28;20063;-61
2021/05/12 04:06:41;;;;;;;22.58;5.65;;;;;;;;;;5091453;28;20150;-61
2021/05/12 04:09:07;;;;;;;18.23;5.40;;;;;;;;;;5092084;28;20030;-61
2021/05/12 04:11:33;;;;;;;32.92;6.75;;;;;;;;;;5092199;28;20720;-61
2021/05/12 04:13:59;;;;;;;18.05;5.50;;;;;;;;;;5091473;28;20485;-60
2021/05/12 04:16:26;;;;;;;17.13;5.63;;;;;;;;;;5092033;28;20028;-61
2021/05/12 04:18:52;;;;;;;15.02;5.32;;;;;;;;;;5092181;28;20024;-60
2021/05/12 04:21:18;;;;;;;14.73;5.03;;;;;;;;;;5091376;28;20016;-61
2021/05/12 04:23:44;;;;;;;16.85;5.78;;;;;;;;;;5106284;28;20024;-60
2021/05/12 04:26:10;;;;;;;13.27;5.30;;;;;;;;;;5112145;28;20088;-61
2021/05/12 04:28:36;;;;;;;11.68;4.90;;;;;;;;;;5111775;28;20038;-60
2021/05/12 04:31:02;;;;;;;14.90;5.00;;;;;;;;;;5111943;28;20028;-60
2021/05/12 04:33:28;;;;;;;9.65;4.82;;;;;;;;;;5112167;28;20077;-60
2021/05/12 04:35:54;;;;;;;13.60;5.43;;;;;;;;;;5110900;28;20023;-60
2021/05/12 04:38:20;;;;;;;12.88;4.85;;;;;;;;;;5101009;28;20127;-61
2021/05/12 04:40:46;;;;;;;12.93;5.15;;;;;;;;;;5091200;28;20067;-60
2021/05/12 04:43:12;;;;;;;15.30;4.93;;;;;;;;;;5088359;28;20023;-61
2021/05/12 04:45:38;;;;;;;12.70;4.85;;;;;;;;;;5080965;28;20032;-61
2021/05/12 04:48:04;;;;;;;11.25;4.65;;;;;;;;;;5090835;28;20020;-61
2021/05/12 04:50:31;;;;;;;12.60;4.75;;;;;;;;;;5089366;28;20020;-60
2021/05/12 04:52:58;;;;;;;13.10;4.67;;;;;;;;;;5088348;28;20047;-61
2021/05/12 04:55:24;;;;;;;14.38;5.53;;;;;;;;;;5089154;28;20024;-61
2021/05/12 04:57:50;;;;;;;14.75;5.15;;;;;;;;;;5087665;28;20028;-61
2021/05/12 05:00:19;;;;;;;9.63;4.88;;;;;;;;;;5084447;28;20501;-60
2021/05/12 05:02:45;;;;;;;11.30;4.57;;;;;;;;;;5071141;28;20032;-61
2021/05/12 05:05:13;;;;;;;11.55;4.95;;;;;;;;;;5074410;28;20495;-61
2021/05/12 05:07:39;;;;;;;12.73;4.60;;;;;;;;;;5090894;28;20554;-61
2021/05/12 05:10:05;;;;;;;11.13;5.00;;;;;;;;;;5088908;28;20036;-61
2021/05/12 05:12:32;;;;;;;11.50;4.60;;;;;;;;;;5090234;28;20032;-61
2021/05/12 05:14:58;;;;;;;13.13;5.13;;;;;;;;;;5091162;28;20034;-61
2021/05/12 05:17:24;;;;;;;12.65;5.40;;;;;;;;;;5073168;28;20421;-61
2021/05/12 05:19:50;;;;;;;12.00;5.10;;;;;;;;;;5069208;28;20024;-61
2021/05/12 05:22:17;;;;;;;14.18;5.25;;;;;;;;;;5072920;28;20124;-61
2021/05/12 05:24:43;;;;;;;12.30;4.70;;;;;;;;;;5090707;28;20482;-61
2021/05/12 05:27:09;;;;;;;12.48;4.80;;;;;;;;;;5082484;28;20098;-61
2021/05/12 05:29:35;;;;;;;9.48;4.97;;;;;;;;;;5089931;28;20039;-61
2021/05/12 05:32:01;;;;;;;14.07;4.75;;;;;;;;;;5086340;28;20024;-61
2021/05/12 05:34:27;;;;;;;13.75;5.25;;;;;;;;;;5089627;28;20024;-60
2021/05/12 05:36:53;;;;;;;13.00;5.65;;;;;;;;;;5090963;28;20094;-61
2021/05/12 05:39:19;;;;;;;13.30;5.55;;;;;;;;;;5087606;28;20029;-62
2021/05/12 05:41:45;;;;;;;19.73;6.00;;;;;;;;;;5085931;28;20028;-61
2021/05/12 05:44:12;;;;;;;17.95;5.63;;;;;;;;;;5090010;28;20053;-60
2021/05/12 05:46:38;;;;;;;21.02;6.40;;;;;;;;;;5089042;28;20024;-61
2021/05/12 05:49:04;;;;;;;19.23;6.90;;;;;;;;;;5085675;28;20028;-61
2021/05/12 05:51:30;;;;;;;19.90;7.65;;;;;;;;;;5082866;28;20043;-61
2021/05/12 05:53:57;;;;;;;18.17;6.53;;;;;;;;;;5087523;28;20028;-61
2021/05/12 05:56:23;;;;;;;25.92;8.18;;;;;;;;;;5080607;28;20024;-62
2021/05/12 05:58:52;;;;;;;20.90;7.75;;;;;;;;;;5075057;28;20154;-61
2021/05/12 06:01:19;;;;;;;25.48;8.68;;;;;;;;;;5086644;28;20025;-61
2021/05/12 06:03:45;;;;;;;22.38;8.65;;;;;;;;;;5083221;28;20032;-61
2021/05/12 06:06:11;;;;;;;20.08;7.60;;;;;;;;;;5087306;28;20043;-60
2021/05/12 06:08:39;;;;;;;27.20;8.25;;;;;;;;;;5094577;28;20111;-61
2021/05/12 06:11:08;;;;;;;24.48;8.50;;;;;;;;;;5088581;28;20040;-61
2021/05/12 06:13:34;;;;;;;22.42;8.50;;;;;;;;;;5078132;28;20036;-60
2021/05/12 06:16:03;;;;;;;21.38;7.75;;;;;;;;;;5087998;28;20733;-61
2021/05/12 06:18:29;;;;;;;;;;;;;;;;;;5082141;28;20039;-61
2021/05/12 06:20:55;;;;;;;21.52;8.05;;;;;;;;;;5083092;28;19908;-61
2021/05/12 06:23:21;;;;;;;20.73;7.75;;;;;;;;;;5092528;28;20049;-61
2021/05/12 06:25:48;;;;;;;22.17;8.40;;;;;;;;;;5081126;28;20490;-61
2021/05/12 06:28:16;;;;;;;20.73;7.90;;;;;;;;;;5090900;28;20023;-61
2021/05/12 06:30:49;;;;;;;20.10;8.15;;;;;;;;;;5093022;28;20031;-48
2021/05/12 06:33:15;;;;;;;21.80;8.27;;;;;;;;;;5093941;28;20062;-61
2021/05/12 06:35:41;;;;;;;18.98;8.05;;;;;;;;;;5076187;28;20063;-61
2021/05/12 06:38:08;;;;;;;19.55;7.65;;;;;;;;;;5079370;28;20036;-61
2021/05/12 06:40:35;;;;;;;22.65;8.30;;;;;;;;;;5075614;28;20028;-61
2021/05/12 06:43:01;;;;;;;22.77;8.00;;;;;;;;;;5087700;28;20500;-49
2021/05/12 06:45:27;;;;;;;21.73;7.97;;;;;;;;;;5090241;28;20114;-50
2021/05/12 06:47:54;;;;;;;18.85;7.78;;;;;;;;;;5089093;28;20139;-52
2021/05/12 06:50:20;;;;;;;22.67;7.57;;;;;;;;;;5084303;28;20122;-49
2021/05/12 06:52:55;;;;;;;19.00;7.65;;;;;;;;;;5083428;28;20093;-48
2021/05/12 06:55:22;;;;;;;18.50;7.55;;;;;;;;;;5081899;28;20031;-48
2021/05/12 06:57:48;;;;;;;16.70;7.55;;;;;;;;;;5088601;28;20032;-61
2021/05/12 07:00:14;;;;;;;20.23;7.25;;;;;;;;;;5089270;28;20500;-60
2021/05/12 07:02:40;;;;;;;18.30;8.00;;;;;;;;;;5093053;28;20561;-61
2021/05/12 07:05:06;;;;;;;18.05;7.35;;;;;;;;;;5091759;28;20035;-62
2021/05/12 07:07:32;;;;;;;22.30;7.10;;;;;;;;;;5084719;28;20038;-61
2021/05/12 07:09:59;;;;;;;21.63;7.60;;;;;;;;;;5083964;28;20394;-60
2021/05/12 07:12:25;;;;;;;17.38;7.47;;;;;;;;;;5075645;28;20032;-50
2021/05/12 07:14:51;;;;;;;21.08;7.50;;;;;;;;;;5087804;28;20435;-61
2021/05/12 07:17:17;;;;;;;17.73;7.43;;;;;;;;;;5088760;28;20024;-61
2021/05/12 07:19:44;;;;;;;18.58;7.03;;;;;;;;;;5086291;28;20081;-61
2021/05/12 07:22:10;;;;;;;14.98;6.70;;;;;;;;;;5088323;28;20028;-61
2021/05/12 07:24:36;;;;;;;17.80;7.15;;;;;;;;;;5089777;28;20111;-63
2021/05/12 07:27:02;;;;;;;17.85;6.70;;;;;;;;;;5084543;28;20032;-62
2021/05/12 07:29:28;;;;;;;17.30;6.75;;;;;;;;;;5086333;28;20051;-62
2021/05/12 07:31:54;;;;;;;15.25;6.38;;;;;;;;;;5086800;28;20032;-59
2021/05/12 07:34:20;;;;;;;15.73;6.20;;;;;;;;;;5084987;28;20028;-62
2021/05/12 07:36:46;;;;;;;16.05;6.22;;;;;;;;;;5077801;28;20705;-62
2021/05/12 07:39:12;;;;;;;16.75;6.60;;;;;;;;;;5083709;28;20024;-62
2021/05/12 07:41:38;;;;;;;14.18;5.97;;;;;;;;;;5078159;28;20040;-62
2021/05/12 07:44:04;;;;;;;15.27;6.00;;;;;;;;;;5090190;28;20036;-61
2021/05/12 07:46:31;;;;;;;14.60;5.50;;;;;;;;;;5081488;28;20381;-61
2021/05/12 07:48:57;;;;;;;14.25;5.50;;;;;;;;;;5079013;28;20041;-62
2021/05/12 07:51:23;;;;;;;11.32;5.60;;;;;;;;;;5081665;28;20024;-62
2021/05/12 07:53:50;;;;;;;15.23;6.03;;;;;;;;;;5088833;28;20036;-61
2021/05/12 07:56:16;;;;;;;14.48;5.90;;;;;;;;;;5083730;28;20024;-50
2021/05/12 07:58:42;;;;;;;16.75;5.95;;;;;;;;;;5083742;28;20153;-48
2021/05/12 08:01:43;;;;;;;18.73;6.38;;;;;;;;;;5080645;28;20149;-50
2021/05/12 08:04:01;;;;;;;12.88;5.57;;;;;;;;;;5080353;28;20402;-48
2021/05/12 08:06:27;;;;;;;12.68;5.47;;;;;;;;;;5081743;28;20082;-48
2021/05/12 08:08:53;;;;;;;16.30;5.68;;;;;;;;;;5079952;28;20028;-50
2021/05/12 08:11:21;;;;;;;14.68;5.93;;;;;;;;;;5074544;28;20028;-47
2021/05/12 08:13:47;;;;;;;16.60;5.15;;;;;;;;;;5081326;28;20063;-48
2021/05/12 08:16:13;;;;;;;12.50;5.28;;;;;;;;;;5091953;28;20028;-64
2021/05/12 08:18:39;;;;;;;12.25;5.38;;;;;;;;;;5085781;28;20040;-47
2021/05/12 08:21:06;;;;;;;14.90;5.45;;;;;;;;;;5084224;28;20031;-47
2021/05/12 08:23:32;;;;;;;15.18;5.43;;;;;;;;;;5086804;28;20119;-48
2021/05/12 08:25:58;;;;;;;12.23;5.43;;;;;;;;;;5074326;28;20044;-47
2021/05/12 08:28:24;;;;;;;18.67;5.60;;;;;;;;;;5084337;28;20386;-62
2021/05/12 08:30:50;;;;;;;12.77;5.57;;;;;;;;;;5082876;28;20120;-58
2021/05/12 08:33:17;;;;;;;10.55;5.10;;;;;;;;;;5086346;28;20024;-60
2021/05/12 08:35:44;;;;;;;9.25;5.00;;;;;;;;;;5087667;28;20031;-61
2021/05/12 08:38:12;;;;;;;12.13;5.57;;;;;;;;;;5085629;28;20046;-59
2021/05/12 08:40:38;;;;;;;12.25;5.80;;;;;;;;;;5081233;28;20051;-59
2021/05/12 08:43:04;;;;;;;11.88;5.10;;;;;;;;;;5087692;28;20036;-59
2021/05/12 08:45:31;;;;;;;13.02;5.53;;;;;;;;;;5083506;28;20151;-60
2021/05/12 08:47:57;;;;;;;12.45;5.57;;;;;;;;;;5086147;28;20054;-62
2021/05/12 08:50:24;;;;;;;11.68;5.38;;;;;;;;;;5081588;28;20032;-62
2021/05/12 08:52:50;;;;;;;15.33;5.40;;;;;;;;;;5082405;28;21685;-62
2021/05/12 08:55:17;;;;;;;11.10;5.22;;;;;;;;;;5085721;28;20032;-62
2021/05/12 08:57:43;;;;;;;11.90;5.25;;;;;;;;;;5081503;28;20028;-62
2021/05/12 09:00:10;;;;;;;11.43;5.20;;;;;;;;;;5085414;28;20177;-62
2021/05/12 09:02:36;;;;;;;14.48;5.50;;;;;;;;;;5099975;28;20480;-63
2021/05/12 09:05:04;;;;;;;15.73;5.35;;;;;;;;;;5072402;28;20028;-63
2021/05/12 09:07:30;;;;;;;12.15;5.20;;;;;;;;;;5081765;28;20032;-63
2021/05/12 09:09:56;;;;;;;11.57;5.20;;;;;;;;;;5082820;28;20024;-62
2021/05/12 09:12:22;;;;;;;11.55;5.20;;;;;;;;;;5084371;28;20024;-62
2021/05/12 09:14:54;;;;;;;12.82;5.22;;;;;;;;;;5085165;28;20099;-61
2021/05/12 09:17:24;;;;;;;9.18;4.50;;;;;;;;;;5086752;28;20554;-60
2021/05/12 09:19:50;;;;;;;10.43;4.85;;;;;;;;;;5077929;28;21291;-61
2021/05/12 09:22:16;;;;;;;10.60;5.03;;;;;;;;;;5084350;28;20750;-49
2021/05/12 09:24:42;;;;;;;13.10;4.68;;;;;;;;;;5093365;28;20056;-48
2021/05/12 09:27:14;;;;;;;13.65;4.60;;;;;;;;;;5085530;28;20036;-47
2021/05/12 09:29:42;;;;;;;10.93;4.40;;;;;;;;;;5084006;28;20028;-50
2021/05/12 09:32:11;;;;;;;9.88;4.30;;;;;;;;;;5085598;28;20493;-48
2021/05/12 09:34:57;;;;;;;11.20;4.47;;;;;;;;;;5088965;28;20040;-48
2021/05/12 09:37:43;;;;;;;9.75;4.38;;;;;;;;;;5091743;28;20494;-47
2021/05/12 09:40:19;;;;;;;13.18;4.65;;;;;;;;;;5079908;28;20474;-50
2021/05/12 09:42:46;;;;;;;11.60;4.55;;;;;;;;;;5089877;28;20032;-48
2021/05/12 09:45:24;;;;;;;14.68;4.80;;;;;;;;;;5099921;28;20150;-48
2021/05/12 09:47:50;;;;;;;10.85;4.30;;;;;;;;;;5095859;28;20036;-47
2021/05/12 09:50:25;;;;;;;9.73;4.50;;;;;;;;;;5088397;28;20024;-47
2021/05/12 09:52:51;;;;;;;10.02;4.47;;;;;;;;;;5091470;28;20162;-48
2021/05/12 09:55:17;;;;;;;10.95;4.43;;;;;;;;;;5091565;28;20032;-47
2021/05/12 09:57:59;;;;;;;10.48;4.38;;;;;;;;;;5092302;28;20020;-48
2021/05/12 10:00:29;;;;;;;12.38;4.25;;;;;;;;;;5091835;28;20020;-48
2021/05/12 10:02:56;;;;;;;8.02;4.25;;;;;;;;;;5091855;28;20146;-47
2021/05/12 10:05:22;;;;;;;9.77;4.28;;;;;;;;;;5092893;28;20016;-48
2021/05/12 10:07:52;;;;;;;10.95;3.80;;;;;;;;;;5092121;28;20035;-47
2021/05/12 10:10:37;;;;;;;12.73;4.43;;;;;;;;;;5091006;28;20158;-48
2021/05/12 10:13:03;;;;;;;10.38;4.22;;;;;;;;;;5092471;28;20054;-48
2021/05/12 10:15:29;;;;;;;8.38;4.10;;;;;;;;;;5083396;28;20067;-49
2021/05/12 10:17:55;;;;;;;13.50;4.35;;;;;;;;;;5091007;28;20050;-66
2021/05/12 10:20:22;;;;;;;13.25;4.20;;;;;;;;;;5086692;28;20016;-65
2021/05/12 10:22:48;;;;;;;16.13;4.57;;;;;;;;;;5088358;28;20093;-65
2021/05/12 10:25:14;;;;;;;16.38;4.80;;;;;;;;;;5081262;28;20086;-49
2021/05/12 10:27:40;;;;;;;12.75;4.80;;;;;;;;;;5085283;28;20032;-65
2021/05/12 10:30:07;;;;;;;15.18;5.35;;;;;;;;;;5082715;28;20032;-66
2021/05/12 10:32:37;;;;;;;13.67;4.70;;;;;;;;;;5083677;28;20169;-65
2021/05/12 10:35:04;;;;;;;15.80;5.10;;;;;;;;;;5085608;28;20277;-65
2021/05/12 10:37:31;;;;;;;13.80;5.25;;;;;;;;;;5078345;28;20072;-65
2021/05/12 10:40:00;;;;;;;11.27;4.43;;;;;;;;;;5086144;28;20032;-63
2021/05/12 10:45:21;;;;;;;11.98;4.57;;;;;;;;;;5087960;28;20024;-66
2021/05/12 10:47:47;;;;;;;14.80;4.70;;;;;;;;;;5084368;28;20047;-66
2021/05/12 10:50:13;;;;;;;10.48;4.20;;;;;;;;;;5082858;28;20056;-64
2021/05/12 10:52:58;;;;;;;8.70;4.43;;;;;;;;;;5093152;28;20738;-65
2021/05/12 10:55:24;;;;;;;11.55;4.38;;;;;;;;;;5078519;28;20036;-63
2021/05/12 10:57:51;;;;;;;12.82;4.28;;;;;;;;;;5081417;28;20028;-62
2021/05/12 11:00:18;;;;;;;11.57;4.50;;;;;;;;;;5087205;28;20105;-64
2021/05/12 11:03:02;;;;;;;12.18;4.28;;;;;;;;;;5088775;28;20481;-63
2021/05/12 11:05:47;;;;;;;12.35;4.60;;;;;;;;;;5089659;28;20024;-63
2021/05/12 11:08:20;;;;;;;12.25;4.70;;;;;;;;;;5090532;28;20024;-65
2021/05/12 11:11:04;;;;;;;13.30;4.28;;;;;;;;;;5090222;28;20367;-65
2021/05/12 11:13:31;;;;;;;10.63;4.53;;;;;;;;;;5082586;28;20493;-63
2021/05/12 11:16:04;;;;;;;24.75;5.50;;;;;;;;;;5081378;28;20123;-65
2021/05/12 11:18:44;;;;;;;10.32;3.83;;;;;;;;;;5079184;28;20020;-67
2021/05/12 11:21:20;;;;;;;9.88;4.22;;;;;;;;;;5080388;28;20036;-64
2021/05/12 11:24:02;;;;;;;11.93;4.63;;;;;;;;;;5088619;28;20024;-63
2021/05/12 11:26:56;;;;;;;13.93;4.10;;;;;;;;;;5087099;28;20036;-67
2021/05/12 11:32:03;;;;;;;9.07;4.15;;;;;;;;;;5089164;28;20123;-64
2021/05/12 11:34:29;;;;;;;8.70;3.88;;;;;;;;;;5087415;28;20405;-64
2021/05/12 11:37:25;;;;;;;10.38;3.95;;;;;;;;;;5082246;28;20088;-64
2021/05/12 11:39:53;;;;;;;12.98;4.00;;;;;;;;;;5073627;28;20032;-65
2021/05/12 11:42:20;;;;;;;9.52;3.97;;;;;;;;;;5073436;28;20025;-64
2021/05/12 11:44:46;;;;;;;9.20;3.93;;;;;;;;;;5073709;28;20070;-64
2021/05/12 11:47:12;;;;;;;8.27;4.00;;;;;;;;;;5088778;28;20357;-63
2021/05/12 11:49:39;;;;;;;11.07;3.58;;;;;;;;;;5081886;28;20494;-64
2021/05/12 11:52:05;;;;;;;11.10;3.80;;;;;;;;;;5083855;28;20126;-64
2021/05/12 11:54:32;;;;;;;8.98;3.70;;;;;;;;;;5083775;28;20103;-65
2021/05/12 11:56:59;;;;;;;11.05;4.00;;;;;;;;;;5086748;28;20397;-65
2021/05/12 11:59:30;;;;;;;10.45;3.90;;;;;;;;;;5077200;28;20028;-65
2021/05/12 12:02:07;;;;;;;11.18;3.80;;;;;;;;;;5073837;28;20055;-64
2021/05/12 12:04:38;;;;;;;7.25;3.67;;;;;;;;;;5089068;28;20034;-64
2021/05/12 12:07:04;;;;;;;11.80;4.07;;;;;;;;;;5089005;28;20039;-65
2021/05/12 12:09:31;;;;;;;9.55;3.85;;;;;;;;;;5088798;28;20043;-65
2021/05/12 12:11:58;;;;;;;11.10;4.03;;;;;;;;;;5084509;28;20119;-55
2021/05/12 12:14:30;;;;;;;10.07;3.47;;;;;;;;;;5079772;28;20028;-54
2021/05/12 12:16:56;;;;;;;10.15;3.50;;;;;;;;;;5076543;28;20031;-54
2021/05/12 12:19:24;;;;;;;12.07;3.70;;;;;;;;;;5080156;28;20103;-55
2021/05/12 12:21:52;;;;;;;11.55;3.78;;;;;;;;;;5080293;28;20043;-54
2021/05/12 12:24:21;;;;;;;6.70;3.72;;;;;;;;;;5088783;28;20041;-54
2021/05/12 12:26:52;;;;;;;8.38;3.30;;;;;;;;;;5082159;28;20039;-55
2021/05/12 12:29:21;;;;;;;7.32;3.72;;;;;;;;;;5078495;28;20500;-54
2021/05/12 12:31:49;;;;;;;7.47;3.63;;;;;;;;;;5085292;28;20043;-53
2021/05/12 12:34:20;;;;;;;8.10;3.67;;;;;;;;;;5082954;28;20093;-53
2021/05/12 12:36:47;;;;;;;6.65;3.88;;;;;;;;;;5083195;28;20090;-55
2021/05/12 12:39:13;;;;;;;6.93;3.72;;;;;;;;;;5083296;28;20028;-53
2021/05/12 12:41:39;;;;;;;5.97;3.28;;;;;;;;;;5085785;28;20539;-54
2021/05/12 12:44:05;;;;;;;6.22;3.60;;;;;;;;;;5078569;28;20064;-54
2021/05/12 12:46:32;;;;;;;6.95;3.40;;;;;;;;;;5073607;28;20036;-54
2021/05/12 12:48:59;;;;;;;9.07;3.55;;;;;;;;;;5094237;28;20043;-55
2021/05/12 12:51:41;;;;;;;7.43;3.80;;;;;;;;;;5082120;28;20490;-53
2021/05/12 12:54:07;;;;;;;7.93;3.58;;;;;;;;;;5078402;28;20119;-53
2021/05/12 12:56:33;;;;;;;8.75;3.88;;;;;;;;;;5076873;28;20058;-53
2021/05/12 12:59:08;;;;;;;9.05;3.40;;;;;;;;;;5075100;28;20370;-53
2021/05/12 13:01:37;;;;;;;7.65;3.50;;;;;;;;;;5083197;28;20032;-54
2021/05/12 13:04:19;;;;;;;8.95;3.50;;;;;;;;;;5076951;28;20086;-54
2021/05/12 13:07:04;;;;;;;7.40;3.42;;;;;;;;;;5089032;28;20050;-64
2021/05/12 13:09:30;;;;;;;7.45;3.35;;;;;;;;;;5081622;28;20098;-65
2021/05/12 13:11:57;;;;;;;6.78;3.38;;;;;;;;;;5086470;28;20482;-54
2021/05/12 13:14:25;;;;;;;8.73;3.35;;;;;;;;;;5075979;28;20041;-65
2021/05/12 13:17:01;;;;;;;7.68;3.55;;;;;;;;;;5082675;28;20039;-64
2021/05/12 13:19:27;;;;;;;8.55;3.45;;;;;;;;;;5079306;28;20027;-64
2021/05/12 13:21:54;;;;;;;5.93;3.65;;;;;;;;;;5082058;28;20025;-63
2021/05/12 13:24:21;;;;;;;10.40;3.42;;;;;;;;;;5085293;28;20039;-66
2021/05/12 13:26:55;;;;;;;8.55;3.60;;;;;;;;;;5081461;28;20025;-65
2021/05/12 13:29:21;;;;;;;6.35;3.35;;;;;;;;;;5079051;28;20042;-65
2021/05/12 13:31:50;;;;;;;5.65;3.33;;;;;;;;;;5084128;28;20412;-62
2021/05/12 13:34:18;;;;;;;6.38;3.50;;;;;;;;;;5089482;28;20085;-62
2021/05/12 13:36:45;;;;;;;;;;;;;;;;;;5083724;28;20119;-64
2021/05/12 13:39:11;;;;;;;9.07;3.30;;;;;;;;;;5086448;28;19908;-64
2021/05/12 13:41:37;;;;;;;9.68;3.45;;;;;;;;;;5089098;28;20030;-64
2021/05/12 13:44:03;;;;;;;7.40;3.30;;;;;;;;;;5089445;28;20032;-64
2021/05/12 13:46:30;;;;;;;6.93;3.20;;;;;;;;;;5089333;28;20050;-64
2021/05/12 13:48:56;;;;;;;6.82;3.58;;;;;;;;;;5088521;28;20038;-63
2021/05/12 13:51:23;;;;;;;7.78;3.47;;;;;;;;;;5080423;28;20028;-62
2021/05/12 13:54:02;;;;;;;9.73;3.53;;;;;;;;;;5090001;28;20805;-62
2021/05/12 14:04:14;;;;;;;8.63;3.45;;;;;;;;;;5089429;28;20151;-62
2021/05/12 14:06:40;;;;;;;7.68;3.53;;;;;;;;;;5089655;28;20111;-62
2021/05/12 14:09:13;;;;;;;5.63;3.30;;;;;;;;;;5093562;28;20432;-62
2021/05/12 14:11:58;;;;;;;6.72;3.40;;;;;;;;;;5093925;28;20536;-63
2021/05/12 14:19:26;;;;;;;7.35;3.35;;;;;;;;;;5093390;28;20020;-60
2021/05/12 14:21:54;;;;;;;8.57;3.20;;;;;;;;;;5093739;28;20066;-60
2021/05/12 14:24:22;;;;;;;7.20;3.60;;;;;;;;;;5113054;28;20031;-60
2021/05/12 14:26:49;;;;;;;7.30;3.20;;;;;;;;;;5114675;28;20103;-60
2021/05/12 14:29:17;;;;;;;6.68;3.38;;;;;;;;;;5114196;28;20032;-60
2021/05/12 14:31:43;;;;;;;;;;;;;;;;;;5093603;28;20381;-60
2021/05/12 14:34:09;;;;;;;7.70;3.28;;;;;;;;;;5090034;28;19911;-60
2021/05/12 14:36:35;;;;;;;10.10;3.40;;;;;;;;;;5067858;28;20027;-62
2021/05/12 14:39:06;;;;;;;11.52;3.30;;;;;;;;;;5078618;28;20032;-66
2021/05/12 14:41:33;;;;;;;4.50;2.90;;;;;;;;;;5082203;28;20108;-65
2021/05/12 14:43:59;;;;;;;10.95;3.53;;;;;;;;;;5071872;28;20033;-65
2021/05/12 14:46:25;;;;;;;7.75;3.42;;;;;;;;;;5077080;28;20022;-65
2021/05/12 14:48:51;;;;;;;10.32;3.40;;;;;;;;;;5093174;28;20024;-65
2021/05/12 14:51:18;;;;;;;12.10;3.40;;;;;;;;;;5080511;28;20028;-65
2021/05/12 14:53:50;;;;;;;14.05;3.70;;;;;;;;;;5086136;28;20043;-65
2021/05/12 15:06:35;;;;;;;9.82;3.53;;;;;;;;;;5092800;28;20032;-65
2021/05/12 15:09:01;;;;;;;9.93;3.95;;;;;;;;;;5092824;28;20027;-64